Nearby METAR Reports

 

KALB - Albany, New York, USA
Distance from station: E 47mi, 75km
Updated: Sun, 26-Sep-2021 7:51pm EDT
Few Clouds
Few Clouds
 Wind from calm
Wind: Calm
Temperature: 54°F , 12°C
Dew Point: 48°F , 9°C
Humidity: 82%
Barometer: 29.88 inHg , 1011.9 hPa
Clouds: Few Clouds
Visibility: 10 miles , 16 km
Cloud details: Few Clouds 10000 ft
2021/09/26 23:51 KALB 262351Z 00000KT 10SM FEW100 12/09 A2988 RMK AO2 SLP118 T01220094 10194 20122 53011 $
KSLK - Saranac Lake, New York, USA
Distance from station: N 110mi, 177km
Updated: Sun, 26-Sep-2021 7:51pm EDT
Mostly cloudy
Mostly cloudy
 Wind from SW
Wind: SW 5 mph , 7 km/h
Temperature: 50°F , 10°C
Wind Chill: 48°F , 9°C
Dew Point: 48°F , 9°C
Humidity: 94%
Barometer: 29.85 inHg , 1010.8 hPa
Clouds: Mostly cloudy
Visibility: 10 miles , 16 km
Cloud details: Mostly cloudy 6000 ft
Mostly cloudy 7500 ft
2021/09/26 23:51 KSLK 262351Z AUTO 23004KT 10SM BKN060 BKN075 10/09 A2985 RMK AO2 RAE09 SLP110 P0000 60007 T01000094 10156 20100 51009
 
KSYR - Syracuse, New York, USA
Distance from station: W 73mi, 117km
Updated: Sun, 26-Sep-2021 7:54pm EDT
Mostly cloudy
Mostly cloudy
 Wind from WSW
Wind: WSW 7 mph , 11 km/h
Temperature: 63°F , 17°C
Dew Point: 52°F , 11°C
Humidity: 68%
Barometer: 29.89 inHg , 1012.2 hPa
Clouds: Mostly cloudy
Visibility: 10 miles , 16 km
Cloud details: Mostly cloudy 9500 ft
2021/09/26 23:54 KSYR 262354Z 24006KT 10SM BKN095 17/11 A2989 RMK AO2 SLP119 T01670111 10222 20156 53008
KBGM - Binghamton, New York, USA
Distance from station: SW 78mi, 126km
Updated: Sun, 26-Sep-2021 7:53pm EDT
Overcast
Overcast
 Wind from W
Wind: W 6 mph , 9 km/h
Temperature: 57°F , 14°C
Dew Point: 45°F , 7°C
Humidity: 63%
Barometer: 29.92 inHg , 1013.2 hPa
Clouds: Overcast
Visibility: 10 miles , 16 km
Cloud details: Overcast 8000 ft
2021/09/26 23:53 KBGM 262353Z 27005KT 10SM OVC080 14/07 A2992 RMK AO2 SLP132 T01440072 10178 20139 53004 $
 
KRME - Rome, New York, USA
Distance from station: WNW 43mi, 69km
Updated: Sun, 26-Sep-2021 7:53pm EDT
Clear
Clear
 Wind from NW
Wind: NW 5 mph , 7 km/h
Temperature: 55°F , 13°C
Dew Point: 46°F , 8°C
Humidity: 72%
Barometer: 29.89 inHg , 1012.2 hPa
Clouds: Clear
Visibility: 10 miles , 16 km
2021/09/26 23:53 KRME 262353Z 32004KT 10SM CLR 13/08 A2989 RMK AO2 SLP122 T01330083 10206 20133 51011
KJFK - New York, New York, USA
Distance from station: SSE 159mi, 256km
Updated: Sun, 26-Sep-2021 7:51pm EDT
Clear
Clear
 Wind from W
Wind: W 13 mph , 20 km/h
Temperature: 70°F , 21°C
Dew Point: 48°F , 9°C
Humidity: 46%
Barometer: 29.94 inHg , 1013.9 hPa
Clouds: Clear
Visibility: 10 miles , 16 km
2021/09/26 23:51 KJFK 262351Z 26011KT 10SM CLR 21/09 A2994 RMK AO2 SLP138 T02060089 10233 20206 53018 $
 
KROC - Rochester, New York, USA
Distance from station: W 150mi, 242km
Updated: Sun, 26-Sep-2021 7:54pm EDT
Mostly cloudy
Mostly cloudy
 Wind from WSW
Wind: WSW 7 mph , 11 km/h
Temperature: 61°F , 16°C
Dew Point: 52°F , 11°C
Humidity: 72%
Barometer: 29.90 inHg , 1012.5 hPa
Clouds: Mostly cloudy
Visibility: 10 miles , 16 km
Cloud details: Few Clouds 4800 ft
Mostly cloudy 11000 ft
Mostly cloudy 20000 ft
Mostly cloudy 25000 ft
2021/09/26 23:54 KROC 262354Z 25006KT 10SM FEW048 BKN110 BKN200 BKN250 16/11 A2990 RMK AO2 SLP129 T01610106 10206 20161 53006
KART - Watertown, New York, USA
Distance from station: NNW 103mi, 166km
Updated: Sun, 26-Sep-2021 7:56pm EDT
Clear
Clear
 Wind from W
Wind: W 10 mph , 17 km/h
Temperature: 61°F , 16°C
Dew Point: 50°F , 10°C
Humidity: 68%
Barometer: 29.86 inHg , 1011.2 hPa
Clouds: Clear
Visibility: 10 miles , 16 km
2021/09/26 23:56 KART 262356Z AUTO 27009KT 10SM CLR 16/10 A2986 RMK AO2 SLP109 T01610100 10194 20161 53009
 
KELM - Elmira-Corning, New York, USA
Distance from station: SSW 121mi, 195km
Updated: Sun, 26-Sep-2021 7:53pm EDT
Mostly cloudy
Mostly cloudy
 Wind from calm
Wind: Calm
Temperature: 57°F , 14°C
Dew Point: 48°F , 9°C
Humidity: 72%
Barometer: 29.91 inHg , 1012.9 hPa
Clouds: Mostly cloudy
Visibility: 10 miles , 16 km
Cloud details: Partly cloudy 8000 ft
Mostly cloudy 11000 ft
2021/09/26 23:53 KELM 262353Z 00000KT 10SM SCT080 BKN110 14/09 A2991 RMK AO2 SLP130 T01390089 10217 20133 53006
KJHW - Jamestown, New York, USA
Distance from station: SW 238mi, 383km
Updated: Sun, 26-Sep-2021 7:56pm EDT
Overcast
Overcast
 Wind from SW
Wind: SW 5 mph , 7 km/h
Temperature: 57°F , 14°C
Dew Point: 48°F , 9°C
Humidity: 72%
Barometer: 29.96 inHg , 1014.6 hPa
Clouds: Overcast
Visibility: 10 miles , 16 km
Cloud details: Few Clouds 9000 ft
Overcast 11000 ft
2021/09/26 23:56 KJHW 262356Z AUTO 22004KT 10SM FEW090 OVC110 14/09 A2996 RMK AO2 SLP153 60000 T01390094 10183 20139 58001
 
KMSS - Massena, New York, USA
Distance from station: N 141mi, 232km
Updated: Sun, 26-Sep-2021 7:53pm EDT
Clear
Clear
 Wind from SW
Wind: SW 7 mph , 11 km/h
Temperature: 55°F , 13°C
Dew Point: 48°F , 9°C
Humidity: 77%
Barometer: 29.84 inHg , 1010.5 hPa
Clouds: Clear
Visibility: 10 miles , 16 km
2021/09/26 23:53 KMSS 262353Z AUTO 23006KT 10SM CLR 13/09 A2984 RMK AO2 SLP105 60002 T01330089 10189 20128 51013 $
KBUF - Buffalo, New York, USA
Distance from station: W 204mi, 328km
Updated: Sun, 26-Sep-2021 7:54pm EDT
Mostly cloudy
Mostly cloudy
 Wind from WSW
Wind: WSW 8 mph , 13 km/h
Temperature: 64°F , 18°C
Dew Point: 52°F , 11°C
Humidity: 64%
Barometer: 29.90 inHg , 1012.5 hPa
Clouds: Mostly cloudy
Visibility: 10 miles , 16 km
Cloud details: Mostly cloudy 9500 ft
Mostly cloudy 13000 ft
2021/09/26 23:54 KBUF 262354Z 24007KT 10SM BKN095 BKN130 18/11 A2990 RMK AO2 SLP126 T01830106 10206 20183 53003 $